Tracy, Missouri
Current Conditions -  °F | °C
As of 9:53 PM on Tuesday 25 Nov 2014 (Local Time) from KMCI Reporting Station
Overcast Overcast  
Wind Chill: 29°   Ceiling: 11000
Heat Index: 37°   Visibility: 10mi
Dew Point: 21°   Wind: 13mph
Humidity: 52%   Direction: 170°S
Pressure: 30.02"   Gusts: NA
Location:  39.3588°N, 94.8136°W
Report Text: KMCI 260353Z 17011KT 10SM OVC110 03/M06 A3002 RMK AO2 SLP173 T00281061
Loading
Personal Weather Stations






























Interactive Weather Map New forecast layout! Learn more

10-Day Weather Forecast

Advertisements
Track Severe Weather on mobile